createdAt,value
2019-01-04T00:02:54.384Z,16.27
2019-01-04T00:08:39.473Z,16.12
2019-01-04T00:43:00.857Z,20.35
2019-01-04T00:45:34.154Z,20.17
2019-01-04T01:06:34.577Z,22.70
2019-01-04T01:09:23.909Z,20.32
2019-01-04T01:12:00.559Z,22.00
2019-01-04T01:14:33.102Z,21.05
2019-01-04T01:29:04.937Z,22.07
2019-01-04T01:37:59.275Z,20.68
2019-01-04T01:43:31.077Z,19.52
2019-01-04T01:49:24.729Z,19.98
2019-01-04T01:55:33.160Z,17.70
2019-01-04T02:02:59.563Z,17.95
2019-01-04T02:10:52.922Z,15.85
2019-01-04T02:16:53.159Z,14.83
2019-01-04T02:22:18.372Z,16.95
2019-01-04T02:24:48.175Z,18.32
2019-01-04T02:27:17.953Z,18.00
2019-01-04T02:36:44.371Z,16.82
2019-01-04T02:39:15.368Z,19.60
2019-01-04T02:41:45.837Z,18.05
2019-01-04T02:44:17.750Z,18.20
2019-01-04T02:46:48.976Z,18.30
2019-01-04T02:53:00.782Z,17.90
2019-01-04T02:55:17.462Z,19.02
2019-01-04T03:00:56.818Z,15.65
2019-01-04T03:03:33.724Z,16.00
2019-01-04T03:06:09.133Z,15.58
2019-01-04T03:14:26.827Z,17.87
2019-01-04T03:20:17.274Z,19.45
2019-01-04T03:22:47.648Z,18.62
2019-01-04T03:25:36.294Z,18.82
2019-01-04T03:28:05.606Z,18.15
2019-01-04T03:30:34.731Z,17.77
2019-01-04T03:33:25.793Z,18.75
2019-01-04T03:35:56.754Z,17.50
2019-01-04T03:38:27.304Z,15.50
2019-01-04T03:40:58.217Z,13.15
2019-01-04T03:43:32.148Z,13.80
2019-01-04T03:46:01.739Z,15.63
2019-01-04T03:48:33.992Z,14.43
2019-01-04T03:51:06.174Z,15.72
2019-01-04T03:53:41.846Z,14.60
2019-01-04T03:56:12.541Z,14.23
2019-01-04T03:58:43.144Z,13.20
2019-01-04T04:01:16.019Z,14.50
2019-01-04T04:04:06.035Z,14.78
2019-01-04T04:09:48.304Z,13.80
2019-01-04T04:15:52.632Z,15.00
2019-01-04T04:18:34.491Z,14.87
2019-01-04T04:21:49.032Z,15.72
2019-01-04T04:24:33.018Z,14.55
2019-01-04T04:27:03.291Z,14.83
2019-01-04T04:29:37.395Z,14.43
2019-01-04T04:32:07.495Z,14.05
2019-01-04T04:34:40.238Z,13.32
2019-01-04T04:37:09.883Z,11.97
2019-01-04T04:39:45.587Z,11.28
2019-01-04T04:42:18.094Z,12.37
2019-01-04T04:44:53.742Z,10.78
2019-01-04T04:47:24.974Z,10.18
2019-01-04T04:49:55.341Z,10.75
2019-01-04T04:55:34.884Z,10.32
2019-01-04T04:58:27.042Z,11.08
2019-01-04T05:00:48.863Z,10.90
2019-01-04T05:11:55.061Z,11.43
2019-01-04T05:14:27.508Z,12.05
2019-01-04T05:16:58.727Z,11.48
2019-01-04T05:19:30.511Z,11.95
2019-01-04T05:22:06.835Z,11.83
2019-01-04T05:24:37.981Z,11.57
2019-01-04T05:27:14.209Z,10.98
2019-01-04T05:29:49.014Z,10.72
2019-01-04T05:32:18.038Z,12.68
2019-01-04T05:34:50.413Z,12.40
2019-01-04T05:40:25.043Z,13.05
2019-01-04T05:43:02.509Z,12.85
2019-01-04T05:48:34.619Z,13.03
2019-01-04T05:51:08.037Z,12.35
2019-01-04T05:53:36.965Z,11.85
2019-01-04T05:56:16.028Z,11.90
2019-01-04T05:58:45.414Z,11.53
2019-01-04T06:01:20.266Z,11.93
2019-01-04T06:03:50.698Z,11.60
2019-01-04T06:06:20.069Z,12.63
2019-01-04T06:08:52.898Z,12.47
2019-01-04T06:11:23.534Z,12.45
2019-01-04T06:13:57.428Z,11.70
2019-01-04T06:16:27.769Z,12.68
2019-01-04T06:18:59.164Z,11.43
2019-01-04T06:27:14.315Z,13.08
2019-01-04T06:29:53.306Z,12.68
2019-01-04T06:32:28.889Z,11.63
2019-01-04T06:35:07.469Z,12.10
2019-01-04T06:37:53.311Z,16.20
2019-01-04T06:44:46.445Z,13.15
2019-01-04T06:46:16.064Z,12.58
2019-01-04T06:48:58.202Z,13.08
2019-01-04T06:51:34.149Z,12.30
2019-01-04T06:54:16.631Z,13.08
2019-01-04T06:56:48.428Z,13.93
2019-01-04T06:59:20.245Z,13.20
2019-01-04T07:01:56.441Z,13.33
2019-01-04T07:04:25.777Z,11.90
2019-01-04T07:06:59.466Z,12.68
2019-01-04T07:09:40.926Z,12.20
2019-01-04T07:12:11.256Z,14.43
2019-01-04T07:14:44.565Z,12.80
2019-01-04T07:17:15.823Z,10.63
2019-01-04T07:19:46.516Z,10.33
2019-01-04T07:22:19.674Z,11.10
2019-01-04T07:24:53.081Z,12.28
2019-01-04T07:27:23.097Z,10.85
2019-01-04T07:29:54.884Z,11.65
2019-01-04T07:32:24.041Z,11.68
2019-01-04T07:35:01.071Z,10.48
2019-01-04T07:37:32.421Z,9.75
2019-01-04T07:40:03.850Z,9.95
2019-01-04T07:42:33.604Z,11.05
2019-01-04T07:45:05.220Z,10.48
2019-01-04T07:47:35.029Z,8.83
2019-01-04T07:50:04.977Z,7.80
2019-01-04T07:52:40.211Z,9.35
2019-01-04T07:55:06.993Z,9.87
2019-01-04T07:57:40.039Z,8.65
2019-01-04T08:00:21.069Z,8.20
2019-01-04T08:02:51.619Z,8.38
2019-01-04T08:05:30.944Z,8.05
2019-01-04T08:08:05.070Z,7.53
2019-01-04T08:10:35.507Z,8.83
2019-01-04T08:13:05.704Z,7.23
2019-01-04T08:15:41.793Z,7.13
2019-01-04T08:18:15.054Z,7.85
2019-01-04T08:20:44.371Z,8.03
2019-01-04T08:23:25.972Z,7.60
2019-01-04T08:25:57.609Z,7.47
2019-01-04T08:28:34.136Z,7.40
2019-01-04T08:31:14.494Z,7.00
2019-01-04T08:33:48.011Z,6.35
2019-01-04T08:36:18.135Z,7.15
2019-01-04T08:38:46.811Z,5.83
2019-01-04T08:41:18.421Z,5.77
2019-01-04T08:43:50.095Z,5.17
2019-01-04T08:46:30.513Z,6.07
2019-01-04T08:49:01.384Z,5.33
2019-01-04T08:51:31.364Z,4.80
2019-01-04T08:54:04.392Z,4.70
2019-01-04T08:56:52.280Z,6.42
2019-01-04T08:59:26.110Z,6.10
2019-01-04T09:01:58.651Z,5.37
2019-01-04T09:04:39.703Z,7.40
2019-01-04T09:07:17.758Z,5.63
2019-01-04T09:09:48.778Z,4.60
2019-01-04T09:12:21.648Z,4.70
2019-01-04T09:18:06.620Z,4.23
2019-01-04T09:20:39.381Z,5.13
2019-01-04T09:23:39.091Z,4.53
2019-01-04T09:26:03.286Z,5.03
2019-01-04T09:28:35.427Z,5.00
2019-01-04T09:31:09.566Z,4.57
2019-01-04T09:33:43.831Z,4.40
2019-01-04T09:36:22.698Z,4.00
2019-01-04T09:39:03.284Z,4.00
2019-01-04T09:41:38.578Z,4.00
2019-01-04T09:44:14.284Z,3.20
2019-01-04T09:46:43.171Z,3.23
2019-01-04T09:49:13.328Z,4.13
2019-01-04T09:54:48.290Z,3.03
2019-01-04T09:57:23.593Z,3.03
2019-01-04T09:59:53.470Z,3.20
2019-01-04T10:02:29.923Z,3.40
2019-01-04T10:05:00.002Z,3.67
2019-01-04T10:07:37.077Z,5.47
2019-01-04T10:10:12.187Z,3.02
2019-01-04T10:12:58.002Z,2.70
2019-01-04T10:15:31.318Z,3.02
2019-01-04T10:18:09.583Z,3.27
2019-01-04T10:20:39.719Z,3.10
2019-01-04T10:23:24.247Z,3.27
2019-01-04T10:26:02.027Z,3.42
2019-01-04T10:28:29.824Z,2.62
2019-01-04T10:31:03.181Z,2.60
2019-01-04T10:33:32.592Z,2.70
2019-01-04T10:36:05.830Z,2.30
2019-01-04T10:38:39.286Z,4.17
2019-01-04T10:41:08.908Z,2.80
2019-01-04T10:43:50.107Z,3.62
2019-01-04T10:46:29.360Z,2.83
2019-01-04T10:48:58.047Z,3.30
2019-01-04T10:51:27.080Z,3.40
2019-01-04T10:53:55.721Z,3.60
2019-01-04T10:56:28.401Z,4.10
2019-01-04T10:59:13.642Z,4.50
2019-01-04T11:02:06.724Z,5.10
2019-01-04T11:04:36.233Z,5.97
2019-01-04T11:07:10.467Z,6.10
2019-01-04T11:09:49.818Z,4.43
2019-01-04T11:12:20.114Z,4.97
2019-01-04T11:14:52.173Z,6.90
2019-01-04T11:17:21.974Z,4.97
2019-01-04T11:19:50.995Z,5.47
2019-01-04T11:22:37.514Z,6.13
2019-01-04T11:25:08.085Z,5.80
2019-01-04T11:27:41.373Z,5.43
2019-01-04T11:30:13.714Z,5.63
2019-01-04T11:32:51.727Z,4.93
2019-01-04T11:35:25.522Z,5.77
2019-01-04T11:38:05.531Z,6.53
2019-01-04T11:40:52.730Z,6.50
2019-01-04T11:43:35.499Z,5.90
2019-01-04T11:46:12.126Z,5.73
2019-01-04T11:48:46.333Z,7.03
2019-01-04T11:51:22.787Z,6.00
2019-01-04T11:53:47.280Z,6.83
2019-01-04T11:56:20.502Z,7.03
2019-01-04T11:58:53.792Z,6.77
2019-01-04T12:01:25.584Z,7.87
2019-01-04T12:03:57.078Z,6.53
2019-01-04T12:06:29.077Z,6.27
2019-01-04T12:08:57.910Z,6.73
2019-01-04T12:11:32.024Z,6.80
2019-01-04T12:14:01.325Z,7.27
2019-01-04T12:16:31.288Z,7.60
2019-01-04T12:19:01.653Z,7.43
2019-01-04T12:21:34.826Z,7.27
2019-01-04T12:24:07.351Z,6.80
2019-01-04T12:26:38.879Z,8.30
2019-01-04T12:29:10.491Z,8.90
2019-01-04T12:31:41.077Z,7.67
2019-01-04T12:34:16.646Z,8.90
2019-01-04T12:36:43.773Z,9.23
2019-01-04T12:39:18.413Z,7.80
2019-01-04T12:41:49.042Z,12.90
2019-01-04T12:44:18.428Z,9.20
2019-01-04T12:46:50.550Z,10.43
2019-01-04T12:49:19.261Z,10.73
2019-01-04T12:51:49.461Z,9.63
2019-01-04T12:54:20.726Z,10.77
2019-01-04T12:56:51.542Z,10.47
2019-01-04T12:59:20.600Z,11.07
2019-01-04T13:01:52.561Z,9.83
2019-01-04T13:04:22.101Z,10.47
2019-01-04T13:06:56.324Z,11.03
2019-01-04T13:09:28.382Z,9.17
2019-01-04T13:12:07.120Z,10.10
2019-01-04T13:14:36.919Z,10.77
2019-01-04T13:17:07.077Z,10.40
2019-01-04T13:19:41.372Z,10.43
2019-01-04T13:22:14.343Z,10.77
2019-01-04T13:24:46.206Z,10.63
2019-01-04T13:27:24.804Z,11.33
2019-01-04T13:29:59.520Z,10.50
2019-01-04T13:32:29.899Z,11.30
2019-01-04T13:35:00.601Z,10.68
2019-01-04T13:37:31.569Z,10.68
2019-01-04T13:40:03.202Z,11.73
2019-01-04T13:42:34.221Z,12.03
2019-01-04T13:45:13.078Z,12.30
2019-01-04T13:47:48.068Z,11.57
2019-01-04T13:50:17.471Z,13.55
2019-01-04T13:52:49.539Z,12.60
2019-01-04T13:55:19.965Z,12.70
2019-01-04T13:57:50.216Z,14.23
2019-01-04T14:00:22.786Z,15.67
2019-01-04T14:02:54.104Z,16.87
2019-01-04T14:05:24.799Z,17.07
2019-01-04T14:07:57.935Z,17.40
2019-01-04T14:10:31.363Z,16.90
2019-01-04T14:13:09.095Z,16.83
2019-01-04T14:15:35.702Z,16.17
2019-01-04T14:18:07.310Z,16.80
2019-01-04T14:20:40.671Z,16.87
2019-01-04T14:23:18.208Z,16.37
2019-01-04T14:25:47.706Z,19.37
2019-01-04T14:28:18.442Z,19.52
2019-01-04T14:30:49.063Z,21.52
2019-01-04T14:33:18.718Z,22.32
2019-01-04T14:35:48.100Z,19.42
2019-01-04T14:38:20.096Z,20.43
2019-01-04T14:40:49.084Z,20.70
2019-01-04T14:43:18.397Z,17.85
2019-01-04T14:45:53.092Z,18.50
2019-01-04T14:48:26.660Z,16.67
2019-01-04T14:50:58.358Z,17.93
2019-01-04T14:53:37.613Z,15.80
2019-01-04T15:00:03.706Z,13.13
2019-01-04T15:02:39.132Z,11.30
2019-01-04T15:08:23.288Z,11.63
2019-01-04T15:11:23.547Z,11.67
2019-01-04T15:13:58.659Z,11.63
2019-01-04T15:17:09.446Z,11.53
2019-01-04T15:19:43.288Z,11.53
2019-01-04T15:22:42.943Z,12.43
2019-01-04T15:25:20.232Z,12.80
2019-01-04T15:40:28.326Z,15.53
2019-01-04T15:43:01.274Z,17.97
2019-01-04T15:51:40.654Z,16.23
2019-01-04T15:54:13.772Z,17.30
2019-01-04T15:59:56.420Z,16.42
2019-01-04T16:05:48.203Z,16.07
2019-01-04T16:09:11.250Z,15.48
2019-01-04T16:11:46.119Z,17.82
2019-01-04T16:14:51.750Z,15.63
2019-01-04T16:17:23.944Z,16.97
2019-01-04T16:20:17.187Z,16.23
2019-01-04T16:22:46.108Z,16.82
2019-01-04T16:25:49.299Z,15.23
2019-01-04T16:28:20.022Z,13.98
2019-01-04T16:31:35.256Z,14.53
2019-01-04T16:34:08.302Z,13.18
2019-01-04T16:37:14.317Z,14.10
2019-01-04T16:39:43.693Z,13.25
2019-01-04T16:45:34.252Z,14.05
2019-01-04T16:48:36.427Z,12.68
2019-01-04T16:51:05.268Z,13.00
2019-01-04T16:56:55.253Z,13.60
2019-01-04T17:18:22.428Z,13.90
2019-01-04T17:20:53.415Z,14.28
2019-01-04T17:24:09.315Z,13.88
2019-01-04T17:26:40.384Z,12.58
2019-01-04T17:32:30.099Z,13.58
2019-01-04T17:35:26.905Z,13.48
2019-01-04T17:37:55.641Z,13.98
2019-01-04T17:40:35.700Z,12.65
2019-01-04T17:46:32.403Z,12.73
2019-01-04T17:49:05.379Z,13.28
2019-01-04T17:52:11.537Z,11.65
2019-01-04T17:54:43.247Z,10.72
2019-01-04T17:57:52.211Z,11.35
2019-01-04T18:00:23.837Z,11.25
2019-01-04T18:03:25.119Z,9.68
2019-01-04T18:05:54.505Z,9.93
2019-01-04T18:08:31.696Z,10.05
2019-01-04T18:11:33.767Z,9.77
2019-01-04T18:14:03.322Z,9.47
2019-01-04T18:17:03.429Z,10.00
2019-01-04T18:19:34.123Z,10.75
2019-01-04T18:22:49.180Z,10.15
2019-01-04T18:25:21.166Z,9.73
2019-01-04T18:31:05.428Z,9.38
2019-01-04T18:33:35.349Z,10.05
2019-01-04T18:36:07.253Z,10.38
2019-01-04T18:38:40.163Z,9.90
2019-01-04T18:41:42.455Z,10.23
2019-01-04T18:44:19.121Z,10.05
2019-01-04T18:46:50.221Z,10.32
2019-01-04T18:50:07.446Z,11.05
2019-01-04T18:52:39.381Z,9.95
2019-01-04T18:55:48.058Z,10.45
2019-01-04T18:58:18.418Z,9.23
2019-01-04T19:01:18.375Z,9.48
2019-01-04T19:03:51.709Z,10.25
2019-01-04T19:06:46.579Z,9.10
2019-01-04T19:09:21.207Z,9.07
2019-01-04T19:12:33.294Z,9.05
2019-01-04T19:15:08.649Z,10.50
2019-01-04T19:24:16.164Z,10.48
2019-01-04T19:26:46.629Z,12.33
2019-01-04T19:29:46.222Z,10.70
2019-01-04T19:32:16.997Z,10.85
2019-01-04T19:35:40.176Z,11.12
2019-01-04T19:38:16.507Z,12.00
2019-01-04T19:41:21.376Z,13.05
2019-01-04T19:43:51.290Z,11.45
2019-01-04T19:46:24.796Z,12.03
2019-01-04T19:49:02.428Z,12.10
2019-01-04T19:51:34.798Z,13.10
2019-01-04T19:54:46.210Z,12.47
2019-01-04T19:57:14.780Z,11.93
2019-01-04T19:59:46.408Z,12.85
2019-01-04T20:02:58.334Z,13.22
2019-01-04T20:05:31.611Z,11.93
2019-01-04T20:11:24.693Z,10.63
2019-01-04T20:17:12.790Z,11.20
2019-01-04T20:20:20.194Z,12.10
2019-01-04T20:23:07.679Z,12.40
2019-01-04T20:28:39.551Z,10.75
2019-01-04T20:31:12.648Z,12.70
2019-01-04T20:33:52.184Z,10.28
2019-01-04T20:36:32.192Z,10.10
2019-01-04T20:39:50.106Z,9.98
2019-01-04T20:42:35.296Z,9.53
2019-01-04T20:45:08.435Z,8.90
2019-01-04T20:47:50.154Z,9.55
2019-01-04T20:50:24.364Z,10.10
2019-01-04T20:53:18.717Z,9.28
2019-01-04T20:55:58.926Z,9.38
2019-01-04T20:59:11.346Z,9.67
2019-01-04T21:02:01.289Z,9.28
2019-01-04T21:07:52.387Z,8.90
2019-01-04T21:13:34.417Z,9.23
2019-01-04T21:19:34.299Z,8.23
2019-01-04T21:22:06.104Z,8.13
2019-01-04T21:24:40.719Z,8.13
2019-01-04T21:27:14.982Z,7.87
2019-01-04T21:30:09.335Z,8.70
2019-01-04T21:33:02.731Z,7.93
2019-01-04T21:36:11.235Z,8.67
2019-01-04T21:38:53.389Z,9.13
2019-01-04T21:44:22.244Z,8.20
2019-01-04T21:50:15.157Z,8.43
2019-01-04T21:55:43.404Z,7.90
2019-01-04T22:01:14.423Z,8.90
2019-01-04T22:07:00.595Z,8.10
2019-01-04T22:10:11.920Z,7.58
2019-01-04T22:12:55.152Z,7.92
2019-01-04T22:16:01.380Z,7.50
2019-01-04T22:18:40.956Z,7.25
2019-01-04T22:24:00.228Z,7.95
2019-01-04T22:30:09.582Z,7.87
2019-01-04T22:32:46.214Z,8.70
2019-01-04T22:35:15.232Z,9.05
2019-01-04T22:41:19.851Z,8.15
2019-01-04T22:43:52.746Z,8.13
2019-01-04T22:46:50.101Z,8.95
2019-01-04T22:52:18.502Z,7.83
2019-01-04T22:58:03.222Z,7.53
2019-01-04T23:03:31.238Z,7.93
2019-01-04T23:09:11.704Z,8.45
2019-01-04T23:14:58.552Z,8.60
2019-01-04T23:17:32.787Z,8.50
2019-01-04T23:20:34.615Z,7.95
2019-01-04T23:23:05.498Z,7.75
2019-01-04T23:28:51.704Z,8.33
2019-01-04T23:31:28.443Z,8.18
2019-01-04T23:34:14.009Z,7.93
2019-01-04T23:36:45.905Z,8.18
2019-01-04T23:39:29.876Z,8.48
2019-01-04T23:42:13.226Z,8.93
2019-01-04T23:47:51.407Z,8.58
2019-01-04T23:53:32.441Z,8.73
2019-01-04T23:59:10.569Z,8.35
